Time;durP1;ratioP1;P1;durP2;ratioP2;P2;SDS_P1;SDS_P2;PMS_P1;PMS_P2;Temp;Humidity;BMP_temperature;BMP_pressure;BME280_temperature;BME280_humidity;BME280_pressure;Samples;Min_cycle;Max_cycle;Signal;HPM_P1;HPM_P2
2023/07/11 00:00:45;;;;;;;4.63;4.33;;;19.60;99.90;;;;;;5270930;28;20701;-48
2023/07/11 00:03:16;;;;;;;6.10;4.30;;;19.60;99.90;;;;;;5267042;28;20270;-47
2023/07/11 00:06:08;;;;;;;9.73;8.83;;;19.60;99.90;;;;;;5245437;28;20927;-47
2023/07/11 00:08:39;;;;;;;6.73;5.67;;;19.60;99.90;;;;;;5262253;28;20322;-47
2023/07/11 00:11:11;;;;;;;7.10;5.23;;;19.60;99.90;;;;;;5260444;28;20491;-47
2023/07/11 00:13:43;;;;;;;4.40;4.10;;;19.70;99.90;;;;;;5258480;28;20184;-47
2023/07/11 00:16:14;;;;;;;6.93;4.87;;;19.60;99.90;;;;;;5256461;28;20420;-47
2023/07/11 00:18:45;;;;;;;8.90;5.57;;;19.60;99.90;;;;;;5273867;28;20404;-47
2023/07/11 00:21:16;;;;;;;4.93;4.57;;;19.50;99.90;;;;;;5256393;28;20526;-46
2023/07/11 00:23:46;;;;;;;4.73;4.30;;;19.50;99.90;;;;;;5255395;28;20183;-46
2023/07/11 00:26:17;;;;;;;7.30;5.03;;;19.50;99.90;;;;;;5256142;28;20331;-46
2023/07/11 00:28:48;;;;;;;5.03;4.63;;;19.50;99.90;;;;;;5245963;28;20281;-47
2023/07/11 00:31:20;;;;;;;4.90;4.50;;;19.50;99.90;;;;;;5255119;28;20678;-47
2023/07/11 00:33:50;;;;;;;5.50;4.73;;;19.50;99.90;;;;;;5263528;28;20540;-46
2023/07/11 00:36:21;;;;;;;7.90;5.80;;;19.50;99.90;;;;;;5269270;28;20438;-47
2023/07/11 00:38:52;;;;;;;4.50;4.10;;;19.50;99.90;;;;;;5254849;28;20185;-47
2023/07/11 00:41:22;;;;;;;4.53;4.13;;;19.40;99.90;;;;;;5260125;28;20607;-47
2023/07/11 00:43:53;;;;;;;4.17;3.97;;;19.40;99.90;;;;;;5252599;28;20182;-47
2023/07/11 00:46:24;;;;;;;4.70;4.27;;;19.40;99.90;;;;;;5271577;28;20670;-47
2023/07/11 00:48:59;;;;;;;4.37;3.90;;;19.40;99.90;;;;;;5237992;28;20241;-47
2023/07/11 00:51:38;;;;;;;5.40;4.90;;;19.40;99.90;;;;;;5272734;28;20439;-46
2023/07/11 00:54:12;;;;;;;4.67;4.10;;;19.40;99.90;;;;;;5247302;28;20433;-47
2023/07/11 00:56:47;;;;;;;5.43;4.30;;;19.30;99.90;;;;;;5228556;28;20434;-46
2023/07/11 00:59:19;;;;;;;4.20;3.90;;;19.30;99.90;;;;;;5263554;28;20426;-47
2023/07/11 01:01:58;;;;;;;4.37;4.13;;;19.30;99.90;;;;;;5246056;28;20503;-47
2023/07/11 01:04:29;;;;;;;6.13;4.00;;;19.30;99.90;;;;;;5237202;28;20475;-46
2023/07/11 01:07:00;;;;;;;3.77;3.57;;;19.20;99.90;;;;;;5272614;28;21019;-46
2023/07/11 01:09:30;;;;;;;4.20;3.90;;;19.20;99.90;;;;;;5249624;28;20190;-48
2023/07/11 01:12:07;;;;;;;5.53;4.40;;;19.20;99.90;;;;;;5251849;28;20312;-46
2023/07/11 01:14:37;;;;;;;5.17;4.57;;;19.10;99.90;;;;;;5238433;28;20672;-47
2023/07/11 01:17:33;;;;;;;5.33;4.83;;;19.10;99.90;;;;;;5255443;28;20440;-47
2023/07/11 01:20:07;;;;;;;5.43;4.47;;;19.10;99.90;;;;;;5230681;28;20231;-46
2023/07/11 01:22:39;;;;;;;5.13;4.73;;;19.10;99.90;;;;;;5265568;28;20463;-47
2023/07/11 01:25:13;;;;;;;6.30;5.67;;;19.10;99.90;;;;;;5269416;28;20435;-46
2023/07/11 01:27:46;;;;;;;5.57;5.13;;;19.10;99.90;;;;;;5251610;28;20847;-45
2023/07/11 01:30:21;;;;;;;5.67;5.17;;;19.10;99.90;;;;;;5253118;28;20514;-47
2023/07/11 01:32:51;;;;;;;7.27;5.33;;;19.10;99.90;;;;;;5259709;28;20458;-47
2023/07/11 01:35:22;;;;;;;6.17;5.30;;;19.00;99.90;;;;;;5259657;28;20490;-47
2023/07/11 01:37:53;;;;;;;8.63;6.47;;;19.00;99.90;;;;;;5264383;28;20178;-46
2023/07/11 01:40:24;;;;;;;8.13;5.87;;;19.00;99.90;;;;;;5262294;28;20211;-47
2023/07/11 01:42:54;;;;;;;5.70;5.20;;;18.90;99.90;;;;;;5263202;28;20462;-46
2023/07/11 01:45:25;;;;;;;9.23;5.63;;;18.90;99.90;;;;;;5267443;28;20189;-47
2023/07/11 01:47:56;;;;;;;6.20;5.60;;;18.90;99.90;;;;;;5266348;28;20209;-47
2023/07/11 01:50:26;;;;;;;4.90;4.50;;;18.90;99.90;;;;;;5245192;28;20268;-47
2023/07/11 01:52:57;;;;;;;6.53;5.30;;;18.80;99.90;;;;;;5269596;28;20236;-46
2023/07/11 01:55:28;;;;;;;7.73;5.90;;;18.80;99.90;;;;;;5251880;28;20186;-46
2023/07/11 01:57:58;;;;;;;5.80;5.40;;;18.80;99.90;;;;;;5262951;28;20189;-46
2023/07/11 02:00:29;;;;;;;4.53;4.33;;;18.80;99.90;;;;;;5270116;28;20276;-47
2023/07/11 02:03:01;;;;;;;5.53;4.60;;;18.70;99.90;;;;;;5254985;28;20186;-47
2023/07/11 02:05:31;;;;;;;5.13;4.73;;;18.70;99.90;;;;;;5264009;28;20650;-47
2023/07/11 02:08:02;;;;;;;5.00;4.50;;;18.60;99.90;;;;;;5260179;28;20466;-47
2023/07/11 02:10:33;;;;;;;5.67;4.50;;;18.60;99.90;;;;;;5270363;28;20270;-47
2023/07/11 02:13:03;;;;;;;5.00;4.53;;;18.60;99.90;;;;;;5274614;28;20205;-47
2023/07/11 02:15:34;;;;;;;8.83;4.97;;;18.50;99.90;;;;;;5275533;28;20227;-46
2023/07/11 02:18:04;;;;;;;6.47;5.80;;;18.50;99.90;;;;;;5270896;28;20271;-46
2023/07/11 02:20:45;;;;;;;5.67;4.93;;;18.40;99.90;;;;;;5241991;28;20213;-47
2023/07/11 02:23:16;;;;;;;4.93;4.50;;;18.50;99.90;;;;;;5264188;28;20496;-46
2023/07/11 02:25:47;;;;;;;4.60;4.20;;;18.40;99.90;;;;;;5264812;28;20497;-46
2023/07/11 02:28:18;;;;;;;4.70;4.47;;;18.40;99.90;;;;;;5266117;28;20202;-47
2023/07/11 02:30:49;;;;;;;5.47;4.90;;;18.40;99.90;;;;;;5269530;28;20189;-47
2023/07/11 02:33:19;;;;;;;9.57;6.80;;;18.30;99.90;;;;;;5239264;28;20473;-46
2023/07/11 02:35:50;;;;;;;6.93;5.50;;;18.30;99.90;;;;;;5250898;28;20185;-47
2023/07/11 02:38:20;;;;;;;7.93;5.30;;;18.30;99.90;;;;;;5250730;28;20188;-47
2023/07/11 02:40:51;;;;;;;4.80;4.50;;;18.30;99.90;;;;;;5243566;28;20256;-46
2023/07/11 02:43:22;;;;;;;4.90;4.60;;;18.30;99.90;;;;;;5245957;28;20186;-48
2023/07/11 02:45:52;;;;;;;6.23;5.63;;;18.20;99.90;;;;;;5267953;28;20198;-47
2023/07/11 02:48:25;;;;;;;5.60;5.20;;;18.20;99.90;;;;;;5240048;28;20220;-47
2023/07/11 02:50:56;;;;;;;10.47;6.00;;;18.20;99.90;;;;;;5268425;28;20672;-47
2023/07/11 02:53:27;;;;;;;8.20;5.67;;;18.20;99.90;;;;;;5253495;28;20432;-48
2023/07/11 02:55:57;;;;;;;6.40;5.80;;;18.10;99.90;;;;;;5241712;28;20189;-47
2023/07/11 02:58:28;;;;;;;12.80;6.00;;;18.10;99.90;;;;;;5227457;28;20186;-48
2023/07/11 03:01:01;;;;;;;6.17;5.60;;;18.00;99.90;;;;;;5266312;28;20206;-47
2023/07/11 03:03:31;;;;;;;5.67;5.10;;;18.00;99.90;;;;;;5242184;28;20190;-47
2023/07/11 03:06:02;;;;;;;8.40;5.97;;;18.00;99.90;;;;;;5240831;28;20742;-46
2023/07/11 03:08:33;;;;;;;5.50;5.10;;;18.00;99.90;;;;;;5226054;28;20267;-46
2023/07/11 03:11:04;;;;;;;8.00;5.53;;;18.10;99.90;;;;;;5264350;28;20451;-47
2023/07/11 03:13:35;;;;;;;5.67;5.27;;;18.00;99.90;;;;;;5263438;28;20584;-47
2023/07/11 03:16:05;;;;;;;6.20;5.17;;;18.10;99.90;;;;;;5249050;28;20182;-46
2023/07/11 03:18:36;;;;;;;10.20;4.73;;;18.10;99.90;;;;;;5273266;28;20177;-47
2023/07/11 03:21:07;;;;;;;4.90;4.40;;;18.10;99.90;;;;;;5253423;28;20205;-47
2023/07/11 03:23:37;;;;;;;7.83;4.60;;;18.10;99.90;;;;;;5262163;28;20190;-47
2023/07/11 03:26:08;;;;;;;4.50;4.17;;;18.20;99.90;;;;;;5246657;28;20189;-47
2023/07/11 03:28:39;;;;;;;4.70;4.30;;;18.20;99.90;;;;;;5267936;28;20199;-46
2023/07/11 03:31:09;;;;;;;4.67;4.30;;;18.30;99.90;;;;;;5263865;28;20227;-46
2023/07/11 03:33:40;;;;;;;11.43;5.50;;;18.30;99.90;;;;;;5263045;28;20192;-46
2023/07/11 03:36:11;;;;;;;5.47;5.00;;;18.30;99.90;;;;;;5238113;28;20725;-47
2023/07/11 03:38:41;;;;;;;5.00;4.50;;;18.30;99.90;;;;;;5238893;28;20190;-47
2023/07/11 03:41:13;;;;;;;4.60;4.30;;;18.40;99.90;;;;;;5246950;28;20209;-47
2023/07/11 03:43:43;;;;;;;5.30;4.90;;;18.40;99.90;;;;;;5247060;28;20177;-47
2023/07/11 03:46:14;;;;;;;6.73;4.60;;;18.40;99.90;;;;;;5253260;28;20426;-47
2023/07/11 03:48:45;;;;;;;4.87;4.40;;;18.50;99.90;;;;;;5241037;28;20182;-46
2023/07/11 03:51:15;;;;;;;4.67;3.90;;;18.50;99.90;;;;;;5268172;28;20221;-49
2023/07/11 03:53:46;;;;;;;5.00;4.50;;;18.60;99.90;;;;;;5242410;28;20185;-48
2023/07/11 03:56:17;;;;;;;4.90;4.50;;;18.60;99.90;;;;;;5243847;28;20591;-46
2023/07/11 03:58:48;;;;;;;4.80;4.50;;;18.70;99.90;;;;;;5247041;28;20520;-48
2023/07/11 04:01:18;;;;;;;3.93;3.70;;;18.80;99.90;;;;;;5244825;28;20583;-46
2023/07/11 04:03:49;;;;;;;4.67;3.63;;;18.90;99.90;;;;;;5258782;28;20185;-47
2023/07/11 04:06:20;;;;;;;4.33;4.00;;;18.90;99.90;;;;;;5225888;28;20278;-47
2023/07/11 04:08:50;;;;;;;4.50;4.17;;;19.00;99.90;;;;;;5230399;28;20669;-47
2023/07/11 04:11:21;;;;;;;3.60;3.40;;;19.10;99.90;;;;;;5263371;28;20210;-47
2023/07/11 04:13:52;;;;;;;4.10;3.80;;;19.20;99.90;;;;;;5251412;28;20181;-48
2023/07/11 04:16:22;;;;;;;7.13;3.73;;;19.20;99.90;;;;;;5265859;28;20562;-45
2023/07/11 04:18:53;;;;;;;5.00;3.80;;;19.30;99.90;;;;;;5260959;28;20181;-46
2023/07/11 04:21:23;;;;;;;3.83;3.53;;;19.40;99.90;;;;;;5259825;28;20208;-48
2023/07/11 04:23:54;;;;;;;4.30;2.80;;;19.50;99.90;;;;;;5235115;28;20186;-47
2023/07/11 04:26:25;;;;;;;3.60;3.10;;;19.60;99.90;;;;;;5261922;28;20210;-47
2023/07/11 04:28:55;;;;;;;4.80;3.27;;;19.70;99.90;;;;;;5268460;28;20637;-46
2023/07/11 04:31:27;;;;;;;3.43;2.97;;;19.90;99.90;;;;;;5231058;28;20201;-48
2023/07/11 04:33:57;;;;;;;5.30;2.67;;;20.20;99.90;;;;;;5253182;28;20184;-48
2023/07/11 04:36:28;;;;;;;3.80;1.93;;;20.50;99.90;;;;;;5262631;28;20943;-47
2023/07/11 04:38:58;;;;;;;4.80;3.03;;;20.80;99.90;;;;;;5272487;28;20193;-48
2023/07/11 04:41:29;;;;;;;1.97;1.87;;;20.90;99.90;;;;;;5252744;28;20205;-46
2023/07/11 04:44:00;;;;;;;6.10;2.60;;;21.00;99.90;;;;;;5276088;28;20246;-46
2023/07/11 04:46:30;;;;;;;2.83;2.50;;;21.10;99.90;;;;;;5274511;28;20657;-48
2023/07/11 04:49:01;;;;;;;6.43;2.47;;;21.30;99.90;;;;;;5251895;28;20174;-47
2023/07/11 04:51:31;;;;;;;5.33;2.80;;;21.50;99.90;;;;;;5253440;22;20221;-42
2023/07/11 04:54:02;;;;;;;5.03;2.47;;;21.90;99.90;;;;;;5243550;28;20178;-43
2023/07/11 04:56:33;;;;;;;3.23;2.80;;;22.30;99.90;;;;;;5252345;28;20619;-43
2023/07/11 04:59:03;;;;;;;2.17;2.07;;;23.00;99.90;;;;;;5251932;28;20228;-43
2023/07/11 05:01:34;;;;;;;3.10;2.73;;;23.90;99.90;;;;;;5255364;28;20194;-44
2023/07/11 05:04:05;;;;;;;3.37;1.93;;;24.50;99.90;;;;;;5247484;28;20182;-42
2023/07/11 05:06:35;;;;;;;5.13;3.00;;;24.90;99.90;;;;;;5231314;28;20233;-43
2023/07/11 05:09:06;;;;;;;3.20;2.40;;;25.20;99.90;;;;;;5221620;28;20544;-43
2023/07/11 05:11:37;;;;;;;6.27;2.30;;;25.40;99.90;;;;;;5202980;28;20202;-43
2023/07/11 05:14:08;;;;;;;2.73;2.17;;;25.70;98.50;;;;;;5255631;28;20483;-43
2023/07/11 05:16:39;;;;;;;2.23;1.63;;;26.00;96.10;;;;;;5234043;28;20182;-43
2023/07/11 05:19:10;;;;;;;2.20;1.70;;;26.50;94.10;;;;;;5225649;28;20439;-43
2023/07/11 05:21:40;;;;;;;1.73;1.63;;;27.30;90.00;;;;;;5231693;28;20286;-43
2023/07/11 05:24:11;;;;;;;2.20;2.00;;;27.80;85.30;;;;;;5209525;28;20201;-44
2023/07/11 05:26:41;;;;;;;2.33;2.23;;;28.30;79.60;;;;;;5232234;28;20267;-42
2023/07/11 05:29:12;;;;;;;6.93;3.00;;;28.80;75.40;;;;;;5230517;28;20193;-43
2023/07/11 05:31:43;;;;;;;4.67;2.90;;;29.60;70.00;;;;;;5234440;28;20279;-43
2023/07/11 05:34:14;;;;;;;5.40;2.40;;;30.60;65.80;;;;;;5241326;28;20210;-44
2023/07/11 05:36:44;;;;;;;4.50;1.97;;;31.90;59.40;;;;;;5255239;28;20469;-43
2023/07/11 05:39:16;;;;;;;2.70;2.50;;;32.90;55.00;;;;;;5214999;28;20186;-44
2023/07/11 05:41:49;;;;;;;2.50;2.30;;;33.50;51.70;;;;;;5226912;28;20237;-44
2023/07/11 05:44:19;;;;;;;2.50;2.40;;;33.90;50.20;;;;;;5237977;28;20439;-44
2023/07/11 05:46:50;;;;;;;2.40;2.27;;;34.50;48.80;;;;;;5242931;28;20526;-46
2023/07/11 05:49:21;;;;;;;4.30;2.33;;;34.70;48.20;;;;;;5230430;28;20197;-44
2023/07/11 05:51:51;;;;;;;2.77;2.40;;;35.40;45.80;;;;;;5217610;28;20205;-44
2023/07/11 05:54:22;;;;;;;2.27;2.17;;;36.00;44.10;;;;;;5247473;28;20556;-45
2023/07/11 05:56:53;;;;;;;2.13;2.03;;;36.90;42.80;;;;;;5242475;28;20190;-43
2023/07/11 05:59:23;;;;;;;2.08;1.98;;;37.30;42.10;;;;;;5223864;28;20186;-44
2023/07/11 06:01:54;;;;;;;2.30;2.20;;;37.90;41.20;;;;;;5220741;28;20208;-43
2023/07/11 06:04:25;;;;;;;2.33;2.10;;;38.60;39.90;;;;;;5249125;28;20245;-43
2023/07/11 06:06:55;;;;;;;3.38;2.55;;;38.70;39.20;;;;;;5238452;28;20202;-43
2023/07/11 06:09:26;;;;;;;2.65;2.45;;;39.10;38.00;;;;;;5229406;28;20185;-44
2023/07/11 06:11:56;;;;;;;2.53;2.42;;;38.80;38.30;;;;;;5229459;28;20198;-44
2023/07/11 06:14:27;;;;;;;2.83;2.63;;;38.70;37.60;;;;;;5228498;28;20697;-44
2023/07/11 06:16:58;;;;;;;3.80;1.88;;;39.10;37.40;;;;;;5256639;28;20194;-44
2023/07/11 06:19:28;;;;;;;1.85;1.77;;;39.60;36.00;;;;;;5239830;28;20193;-45
2023/07/11 06:21:59;;;;;;;4.55;2.00;;;39.80;35.40;;;;;;5245970;28;20201;-43
2023/07/11 06:24:30;;;;;;;1.60;1.60;;;38.60;36.00;;;;;;5243330;28;20190;-43
2023/07/11 06:27:01;;;;;;;3.13;1.95;;;38.70;35.80;;;;;;5218854;28;20200;-44
2023/07/11 06:29:32;;;;;;;2.38;2.13;;;39.40;34.90;;;;;;5246121;28;20170;-44
2023/07/11 06:32:03;;;;;;;6.88;2.00;;;40.00;33.70;;;;;;5220807;28;20741;-44
2023/07/11 06:34:34;;;;;;;2.03;1.92;;;39.80;34.00;;;;;;5216235;28;20649;-45
2023/07/11 06:37:04;;;;;;;2.63;2.42;;;39.90;33.20;;;;;;5227046;28;20196;-44
2023/07/11 06:39:35;;;;;;;2.30;2.00;;;40.10;33.10;;;;;;5221819;28;20240;-44
2023/07/11 06:42:06;;;;;;;2.72;1.77;;;40.50;32.20;;;;;;5236281;28;20260;-42
2023/07/11 06:44:36;;;;;;;2.30;1.70;;;41.10;30.40;;;;;;5255354;28;20268;-44
2023/07/11 06:47:07;;;;;;;2.30;2.20;;;41.30;30.40;;;;;;5246633;28;20563;-44
2023/07/11 06:49:38;;;;;;;6.97;1.98;;;41.40;30.20;;;;;;5244834;28;20219;-43
2023/07/11 06:52:09;;;;;;;6.93;1.85;;;41.20;30.40;;;;;;5233250;28;20214;-44
2023/07/11 06:54:39;;;;;;;1.88;1.77;;;41.20;29.60;;;;;;5222178;28;20209;-44
2023/07/11 06:57:10;;;;;;;4.60;1.25;;;41.30;29.30;;;;;;5231829;28;20186;-44
2023/07/11 06:59:41;;;;;;;2.53;2.33;;;41.40;29.40;;;;;;5241005;28;20186;-44
2023/07/11 07:02:11;;;;;;;5.15;2.47;;;41.40;29.40;;;;;;5251019;28;20279;-45
2023/07/11 07:04:42;;;;;;;4.95;1.60;;;41.70;29.00;;;;;;5247370;28;20184;-45
2023/07/11 07:07:12;;;;;;;1.55;1.45;;;41.70;29.10;;;;;;5241848;28;20209;-44
2023/07/11 07:09:43;;;;;;;2.15;1.42;;;41.90;28.60;;;;;;5196109;28;20189;-44
2023/07/11 07:12:16;;;;;;;8.90;2.03;;;41.70;29.10;;;;;;5240337;28;20191;-44
2023/07/11 07:14:46;;;;;;;2.63;2.42;;;41.80;27.90;;;;;;5228867;28;20174;-45
2023/07/11 07:17:17;;;;;;;4.70;1.75;;;41.80;28.60;;;;;;5244548;28;20189;-44
2023/07/11 07:19:48;;;;;;;1.40;1.40;;;41.90;28.40;;;;;;5246557;28;20331;-43
2023/07/11 07:22:18;;;;;;;3.90;1.35;;;41.90;28.10;;;;;;5229815;28;20201;-44
2023/07/11 07:24:49;;;;;;;3.53;2.10;;;42.00;27.90;;;;;;5215764;28;20541;-43
2023/07/11 07:27:19;;;;;;;1.48;1.27;;;42.00;27.40;;;;;;5224075;28;20210;-46
2023/07/11 07:29:51;;;;;;;1.83;1.70;;;41.70;27.60;;;;;;5238664;28;20193;-44
2023/07/11 07:32:22;;;;;;;1.70;1.45;;;42.00;27.30;;;;;;5244717;28;20208;-45
2023/07/11 07:34:58;;;;;;;2.35;1.45;;;41.70;28.10;;;;;;5252297;28;20184;-44
2023/07/11 07:37:28;;;;;;;1.95;1.83;;;42.10;28.00;;;;;;5234327;28;20177;-43
2023/07/11 07:39:59;;;;;;;2.35;2.00;;;42.30;28.00;;;;;;5249011;28;20548;-44
2023/07/11 07:42:30;;;;;;;2.20;2.10;;;42.20;27.90;;;;;;5232226;28;20232;-44
2023/07/11 07:45:00;;;;;;;1.55;1.52;;;42.10;27.80;;;;;;5245075;28;20186;-44
2023/07/11 07:47:31;;;;;;;5.28;1.50;;;42.20;27.90;;;;;;5252907;28;20193;-44
2023/07/11 07:50:02;;;;;;;1.75;1.63;;;42.10;27.70;;;;;;5242055;28;20213;-44
2023/07/11 07:52:33;;;;;;;3.17;1.83;;;41.30;27.90;;;;;;5218466;28;20732;-44
2023/07/11 07:55:04;;;;;;;1.45;1.40;;;40.90;28.20;;;;;;5244810;28;20185;-44
2023/07/11 07:57:36;;;;;;;4.13;1.73;;;40.80;28.40;;;;;;5247601;28;20277;-44
2023/07/11 08:00:07;;;;;;;1.92;1.83;;;40.50;28.30;;;;;;5226805;28;20200;-45
2023/07/11 08:02:42;;;;;;;6.63;2.53;;;40.40;28.60;;;;;;5247300;28;20206;-44
2023/07/11 08:05:13;;;;;;;2.13;1.95;;;40.30;28.60;;;;;;5211934;28;20185;-46
2023/07/11 08:07:44;;;;;;;1.42;1.42;;;40.20;28.60;;;;;;5231843;28;20572;-45
2023/07/11 08:10:17;;;;;;;1.80;1.58;;;40.50;28.40;;;;;;5221772;28;20192;-46
2023/07/11 08:12:47;;;;;;;2.13;1.40;;;40.50;28.30;;;;;;5249930;28;20255;-44
2023/07/11 08:15:18;;;;;;;5.95;1.85;;;41.10;27.80;;;;;;5236821;28;20544;-45
2023/07/11 08:17:49;;;;;;;3.90;2.15;;;41.50;27.80;;;;;;5247138;28;20182;-43
2023/07/11 08:20:19;;;;;;;2.40;1.58;;;42.40;26.50;;;;;;5224027;28;20200;-44
2023/07/11 08:22:50;;;;;;;1.85;1.58;;;42.70;26.10;;;;;;5248548;28;20288;-44
2023/07/11 08:25:21;;;;;;;4.82;1.80;;;42.80;25.20;;;;;;5222531;28;20185;-44
2023/07/11 08:27:51;;;;;;;2.47;2.03;;;42.20;25.50;;;;;;5238653;28;20266;-44
2023/07/11 08:30:22;;;;;;;4.63;1.67;;;41.40;25.30;;;;;;5255625;28;20193;-44
2023/07/11 08:32:52;;;;;;;2.17;1.38;;;41.40;25.50;;;;;;5224997;28;20201;-44
2023/07/11 08:35:23;;;;;;;1.88;1.77;;;41.20;26.10;;;;;;5249721;28;20692;-44
2023/07/11 08:37:55;;;;;;;3.70;1.77;;;41.30;26.00;;;;;;5251230;28;20272;-44
2023/07/11 08:40:32;;;;;;;1.60;1.50;;;41.00;26.30;;;;;;5252707;28;20185;-44
2023/07/11 08:43:05;;;;;;;4.13;2.50;;;40.50;26.70;;;;;;5243562;28;20213;-44
2023/07/11 08:46:02;;;;;;;4.70;2.30;;;40.00;27.20;;;;;;5219726;28;20190;-43
2023/07/11 08:48:41;;;;;;;2.17;1.30;;;39.90;27.70;;;;;;5229804;28;20572;-43
2023/07/11 08:51:32;;;;;;;1.48;1.38;;;38.80;27.60;;;;;;5241945;28;20310;-44
2023/07/11 08:54:34;;;;;;;7.72;0.80;;;37.80;27.50;;;;;;5227028;28;20178;-43
2023/07/11 08:57:10;;;;;;;1.38;1.00;;;36.20;28.30;;;;;;5215789;28;20181;-44
2023/07/11 08:59:59;;;;;;;2.00;1.20;;;35.10;29.20;;;;;;5225350;28;20192;-43
2023/07/11 09:02:44;;;;;;;4.88;1.30;;;34.00;29.80;;;;;;5244169;28;20624;-44
2023/07/11 09:05:26;;;;;;;1.50;1.37;;;33.30;30.90;;;;;;5240406;28;20197;-44
2023/07/11 09:07:58;;;;;;;1.33;1.23;;;32.20;32.60;;;;;;5255173;28;20668;-43
2023/07/11 09:10:42;;;;;;;4.83;1.40;;;31.90;33.90;;;;;;5230626;28;20668;-44
2023/07/11 09:13:42;;;;;;;1.77;1.37;;;31.60;34.10;;;;;;5247056;28;20766;-42
2023/07/11 09:16:40;;;;;;;5.67;1.50;;;31.30;34.90;;;;;;5235249;28;20719;-44
2023/07/11 09:19:15;;;;;;;1.50;1.40;;;30.70;35.50;;;;;;5253555;28;20437;-43
2023/07/11 09:21:52;;;;;;;1.40;1.30;;;30.30;36.00;;;;;;5237497;28;20491;-44
2023/07/11 09:24:39;;;;;;;3.33;1.27;;;30.30;35.60;;;;;;5230697;28;20795;-44
2023/07/11 09:27:25;;;;;;;2.20;1.20;;;29.90;35.90;;;;;;5256225;28;20464;-44
2023/07/11 09:29:56;;;;;;;1.93;1.70;;;29.60;36.70;;;;;;5247005;28;20443;-44
2023/07/11 09:32:34;;;;;;;1.30;1.13;;;29.50;37.70;;;;;;5230194;28;20541;-43
2023/07/11 09:35:20;;;;;;;3.33;1.53;;;29.40;37.90;;;;;;5249282;28;20265;-43
2023/07/11 09:37:58;;;;;;;5.30;1.50;;;29.70;38.10;;;;;;5231841;28;20431;-43
2023/07/11 09:40:34;;;;;;;2.63;1.50;;;29.80;37.20;;;;;;5237081;28;20799;-43
2023/07/11 09:43:08;;;;;;;6.60;2.10;;;29.70;37.10;;;;;;5231287;28;20452;-43
2023/07/11 09:45:41;;;;;;;7.50;1.17;;;29.80;38.00;;;;;;5241316;28;20429;-44
2023/07/11 09:48:17;;;;;;;1.90;1.77;;;29.60;36.20;;;;;;5235964;28;20567;-43
2023/07/11 09:51:00;;;;;;;3.47;1.67;;;29.30;36.80;;;;;;5234469;28;20419;-42
2023/07/11 09:53:32;;;;;;;2.07;1.23;;;29.20;37.60;;;;;;5240690;28;20423;-43
2023/07/11 09:56:09;;;;;;;0.93;0.93;;;29.20;37.20;;;;;;5236912;28;20759;-43
2023/07/11 09:58:45;;;;;;;4.13;1.20;;;29.20;36.70;;;;;;5248730;28;20529;-42
2023/07/11 10:01:36;;;;;;;3.80;1.40;;;29.20;36.70;;;;;;5252038;28;20966;-44
2023/07/11 10:04:12;;;;;;;6.60;2.00;;;29.20;37.00;;;;;;5219834;28;20440;-43
2023/07/11 10:06:53;;;;;;;4.23;1.57;;;29.00;37.60;;;;;;5248434;28;20454;-44
2023/07/11 10:09:25;;;;;;;3.87;1.80;;;28.80;37.90;;;;;;5249346;28;20501;-42
2023/07/11 10:12:23;;;;;;;2.37;1.63;;;28.80;38.10;;;;;;5228429;28;20451;-43
2023/07/11 10:14:58;;;;;;;3.60;1.30;;;28.80;37.60;;;;;;5222215;28;20845;-44
2023/07/11 10:17:36;;;;;;;2.93;1.40;;;28.80;38.40;;;;;;5220479;28;20428;-42
2023/07/11 10:20:18;;;;;;;4.93;1.67;;;28.90;38.30;;;;;;5235449;28;20436;-43
2023/07/11 10:22:52;;;;;;;6.83;2.40;;;28.90;38.70;;;;;;5220825;28;20457;-46
2023/07/11 10:25:27;;;;;;;3.80;1.93;;;29.00;39.20;;;;;;5242360;28;20432;-43
2023/07/11 10:28:15;;;;;;;3.70;1.30;;;29.00;39.40;;;;;;5242831;28;20488;-42
2023/07/11 10:30:46;;;;;;;1.70;1.40;;;29.10;38.80;;;;;;5233747;28;20483;-44
2023/07/11 10:33:22;;;;;;;0.90;0.90;;;28.90;38.80;;;;;;5225306;28;20536;-43
2023/07/11 10:36:02;;;;;;;2.73;1.50;;;28.60;39.90;;;;;;5224876;28;20420;-44
2023/07/11 10:39:01;;;;;;;1.93;1.80;;;28.60;39.80;;;;;;5245492;28;20499;-42
2023/07/11 10:41:57;;;;;;;1.57;1.47;;;28.60;39.70;;;;;;5235104;28;20445;-43
2023/07/11 10:44:38;;;;;;;2.20;2.00;;;28.70;39.00;;;;;;5210879;28;20432;-43
2023/07/11 10:47:09;;;;;;;6.53;1.57;;;28.70;39.00;;;;;;5237968;28;20455;-44
2023/07/11 10:49:44;;;;;;;1.77;1.13;;;28.70;38.70;;;;;;5242029;28;20763;-44
2023/07/11 10:52:21;;;;;;;2.63;1.80;;;28.80;39.20;;;;;;5232954;28;20571;-43
2023/07/11 10:55:05;;;;;;;4.60;2.00;;;28.60;39.30;;;;;;5244312;28;20428;-43
2023/07/11 10:57:46;;;;;;;1.73;1.60;;;28.40;39.80;;;;;;5234633;28;20428;-43
2023/07/11 11:00:20;;;;;;;6.73;3.70;;;28.40;40.40;;;;;;5233669;28;20449;-43
2023/07/11 11:03:19;;;;;;;4.03;2.67;;;28.40;40.50;;;;;;5234160;28;20466;-44
2023/07/11 11:06:11;;;;;;;2.13;2.03;;;28.50;41.00;;;;;;5260314;28;20447;-45
2023/07/11 11:08:59;;;;;;;3.50;2.13;;;28.60;40.00;;;;;;5223837;28;20514;-42
2023/07/11 11:11:54;;;;;;;2.30;2.20;;;28.70;39.80;;;;;;5244107;28;20459;-43
2023/07/11 11:14:42;;;;;;;2.33;2.13;;;28.70;39.10;;;;;;5246041;28;20465;-43
2023/07/11 11:17:37;;;;;;;1.10;0.83;;;28.70;38.40;;;;;;5233519;28;20432;-43
2023/07/11 11:20:21;;;;;;;7.13;1.60;;;28.60;37.10;;;;;;5236208;28;20436;-44
2023/07/11 11:23:24;;;;;;;1.40;1.40;;;28.40;38.10;;;;;;5239768;28;20456;-43
2023/07/11 11:26:03;;;;;;;3.90;1.83;;;28.50;39.30;;;;;;5242561;28;20439;-43
2023/07/11 11:29:04;;;;;;;4.00;1.60;;;28.70;39.70;;;;;;5214569;28;20461;-44
2023/07/11 11:31:44;;;;;;;1.90;1.60;;;28.80;39.70;;;;;;5249539;28;20448;-43
2023/07/11 11:34:26;;;;;;;2.53;1.70;;;28.70;38.20;;;;;;5234326;28;20436;-44
2023/07/11 11:37:18;;;;;;;4.83;1.70;;;28.70;39.20;;;;;;5231741;28;20870;-44
2023/07/11 11:40:09;;;;;;;1.97;1.87;;;28.80;39.40;;;;;;5226838;28;20425;-43
2023/07/11 11:42:43;;;;;;;2.10;1.07;;;28.60;39.00;;;;;;5216893;28;20452;-43
2023/07/11 11:45:19;;;;;;;10.60;2.43;;;28.40;39.40;;;;;;5227487;28;20557;-43
2023/07/11 11:47:52;;;;;;;1.80;1.70;;;28.60;39.40;;;;;;5224591;28;20464;-44
2023/07/11 11:50:24;;;;;;;2.90;2.30;;;28.70;39.10;;;;;;5229368;28;20433;-43
2023/07/11 11:53:46;;;;;;;15.50;2.50;;;28.80;39.20;;;;;;5224699;28;20803;-43
2023/07/11 11:56:20;;;;;;;3.43;1.87;;;28.90;38.90;;;;;;5231367;28;20445;-43
2023/07/11 11:58:56;;;;;;;2.23;2.03;;;29.00;38.20;;;;;;5231350;28;20432;-43
2023/07/11 12:01:35;;;;;;;2.00;1.90;;;29.10;38.10;;;;;;5226050;28;20448;-43
2023/07/11 12:04:28;;;;;;;3.10;1.93;;;29.20;39.10;;;;;;5260966;28;20506;-44
2023/07/11 12:07:01;;;;;;;3.33;2.10;;;29.20;39.30;;;;;;5248970;28;20455;-43
2023/07/11 12:09:51;;;;;;;2.53;2.00;;;29.30;39.60;;;;;;5254819;28;20436;-47
2023/07/11 12:12:24;;;;;;;1.90;1.70;;;29.30;39.40;;;;;;5235489;28;20445;-43
2023/07/11 12:14:55;;;;;;;3.87;1.90;;;29.10;39.50;;;;;;5249647;28;20418;-44
2023/07/11 12:17:31;;;;;;;2.07;1.87;;;29.00;40.00;;;;;;5236932;28;20441;-44
2023/07/11 12:20:08;;;;;;;2.13;1.97;;;28.90;39.90;;;;;;5215074;28;20273;-44
2023/07/11 12:22:39;;;;;;;6.30;2.83;;;29.00;40.00;;;;;;5235179;28;20943;-44
2023/07/11 12:25:12;;;;;;;8.83;2.00;;;29.10;39.70;;;;;;5249149;28;20442;-43
2023/07/11 12:28:01;;;;;;;1.87;1.77;;;29.20;39.70;;;;;;5249685;28;20332;-44
2023/07/11 12:30:38;;;;;;;2.57;1.97;;;29.20;39.50;;;;;;5227955;28;21041;-43
2023/07/11 12:33:31;;;;;;;3.33;2.40;;;29.20;40.20;;;;;;5251035;28;20498;-45
2023/07/11 12:36:29;;;;;;;2.00;1.90;;;29.30;40.00;;;;;;5223407;28;20963;-44
2023/07/11 12:39:09;;;;;;;3.60;1.63;;;29.40;40.10;;;;;;5254486;28;20411;-43
2023/07/11 12:41:53;;;;;;;1.73;1.63;;;29.30;39.80;;;;;;5244267;28;20504;-44
2023/07/11 12:44:24;;;;;;;4.63;1.97;;;29.10;40.10;;;;;;5233377;28;20464;-43
2023/07/11 12:46:55;;;;;;;1.93;1.70;;;29.00;39.60;;;;;;5240630;28;20489;-44
2023/07/11 12:49:28;;;;;;;7.33;2.83;;;29.10;39.00;;;;;;5246618;28;20545;-44
2023/07/11 12:52:15;;;;;;;1.30;1.30;;;29.20;39.20;;;;;;5232050;28;20213;-43
2023/07/11 12:54:47;;;;;;;2.57;1.60;;;29.20;39.20;;;;;;5244031;28;20437;-43
2023/07/11 12:57:20;;;;;;;1.67;1.53;;;29.30;39.00;;;;;;5253747;28;20501;-44
2023/07/11 12:59:51;;;;;;;2.50;2.30;;;29.30;39.10;;;;;;5248070;28;20412;-44
2023/07/11 13:02:29;;;;;;;2.00;1.83;;;29.40;39.70;;;;;;5244431;28;20982;-44
2023/07/11 13:04:59;;;;;;;2.30;2.20;;;29.40;40.00;;;;;;5230553;28;20208;-45
2023/07/11 13:07:32;;;;;;;3.50;2.47;;;29.20;39.70;;;;;;5249795;28;20455;-43
2023/07/11 13:10:16;;;;;;;5.03;2.20;;;29.00;39.40;;;;;;5236239;28;20194;-44
2023/07/11 13:12:47;;;;;;;3.43;2.00;;;28.80;39.70;;;;;;5228987;28;20444;-43
2023/07/11 13:15:20;;;;;;;9.93;3.13;;;29.10;39.80;;;;;;5230856;28;20776;-44
2023/07/11 13:17:54;;;;;;;2.20;2.00;;;29.20;39.80;;;;;;5255970;28;20425;-44
2023/07/11 13:20:27;;;;;;;2.00;1.80;;;29.40;38.90;;;;;;5248144;28;20525;-44
2023/07/11 13:22:58;;;;;;;2.40;2.27;;;29.50;38.60;;;;;;5243287;28;20460;-44